createdAt,value
2022-12-19T00:01:37.460Z,99973.34
2022-12-19T00:04:07.999Z,99969.81
2022-12-19T00:06:36.494Z,99963.47
2022-12-19T00:09:03.636Z,99964.44
2022-12-19T00:11:31.937Z,99957.31
2022-12-19T00:13:59.656Z,99945.66
2022-12-19T00:16:29.154Z,99950.22
2022-12-19T00:19:01.346Z,99940.38
2022-12-19T00:21:30.317Z,99947.22
2022-12-19T00:23:56.960Z,99942.31
2022-12-19T00:26:23.310Z,99924.50
2022-12-19T00:28:53.112Z,99917.50
2022-12-19T00:31:20.422Z,99919.13
2022-12-19T00:33:48.057Z,99927.97
2022-12-19T00:36:22.835Z,99925.16
2022-12-19T00:38:51.557Z,99934.59
2022-12-19T00:41:19.431Z,99933.00
2022-12-19T00:43:46.550Z,99940.56
2022-12-19T00:46:15.482Z,99939.84
2022-12-19T00:48:42.960Z,99930.63
2022-12-19T00:51:17.933Z,99922.78
2022-12-19T00:53:44.952Z,99912.78
2022-12-19T00:56:16.737Z,99909.25
2022-12-19T00:58:46.878Z,99907.50
2022-12-19T01:01:37.927Z,99911.03
2022-12-19T01:06:57.788Z,99915.28
2022-12-19T01:09:31.457Z,99913.69
2022-12-19T01:12:16.948Z,99898.66
2022-12-19T01:14:43.563Z,99897.81
2022-12-19T01:17:10.100Z,99899.41
2022-12-19T01:19:41.938Z,99899.25
2022-12-19T01:22:10.669Z,99883.66
2022-12-19T01:24:40.737Z,99873.19
2022-12-19T01:27:07.187Z,99875.72
2022-12-19T01:29:33.757Z,99895.81
2022-12-19T01:32:03.327Z,99902.97
2022-12-19T01:34:30.178Z,99890.31
2022-12-19T01:36:56.650Z,99896.63
2022-12-19T01:39:26.014Z,99888.47
2022-12-19T01:41:55.598Z,99877.81
2022-12-19T01:44:24.687Z,99871.81
2022-12-19T01:46:54.085Z,99866.50
2022-12-19T01:49:28.130Z,99871.53
2022-12-19T01:51:58.583Z,99867.97
2022-12-19T01:54:34.678Z,99869.13
2022-12-19T01:57:02.751Z,99849.59
2022-12-19T01:59:34.800Z,99864.53
2022-12-19T02:02:11.427Z,99840.22
2022-12-19T02:04:43.999Z,99842.50
2022-12-19T02:07:16.367Z,99833.91
2022-12-19T02:09:46.742Z,99848.56
2022-12-19T02:12:13.679Z,99867.91
2022-12-19T02:14:41.465Z,99865.13
2022-12-19T02:17:14.476Z,99865.81
2022-12-19T02:20:11.415Z,99853.53
2022-12-19T02:22:46.969Z,99855.25
2022-12-19T02:25:22.505Z,99844.84
2022-12-19T02:27:58.927Z,99846.72
2022-12-19T02:30:40.564Z,99842.31
2022-12-19T02:33:17.972Z,99840.66
2022-12-19T02:35:51.376Z,99825.94
2022-12-19T02:38:37.035Z,99822.16
2022-12-19T02:41:06.424Z,99829.25
2022-12-19T02:43:38.868Z,99824.97
2022-12-19T02:46:06.569Z,99828.47
2022-12-19T02:48:33.936Z,99823.25
2022-12-19T02:51:00.507Z,99817.19
2022-12-19T02:53:26.934Z,99816.28
2022-12-19T02:56:19.899Z,99817.13
2022-12-19T02:58:49.267Z,99820.22
2022-12-19T03:01:29.578Z,99825.53
2022-12-19T03:04:11.227Z,99814.06
2022-12-19T03:06:52.710Z,99824.66
2022-12-19T03:09:45.557Z,99818.38
2022-12-19T03:12:21.257Z,99811.31
2022-12-19T03:14:49.205Z,99807.72
2022-12-19T03:17:19.151Z,99806.84
2022-12-19T03:19:46.104Z,99800.47
2022-12-19T03:22:12.874Z,99786.97
2022-12-19T03:24:39.680Z,99789.56
2022-12-19T03:27:36.002Z,99786.88
2022-12-19T03:30:10.194Z,99780.53
2022-12-19T03:32:39.312Z,99777.66
2022-12-19T03:35:09.878Z,99773.25
2022-12-19T03:37:38.520Z,99766.28
2022-12-19T03:40:12.766Z,99764.16
2022-12-19T03:42:59.871Z,99769.31
2022-12-19T03:45:40.121Z,99752.22
2022-12-19T03:48:46.293Z,99757.63
2022-12-19T03:51:42.140Z,99755.09
2022-12-19T03:54:33.163Z,99750.47
2022-12-19T03:57:21.110Z,99743.34
2022-12-19T03:59:56.725Z,99739.94
2022-12-19T04:02:24.309Z,99740.44
2022-12-19T04:04:55.830Z,99733.91
2022-12-19T04:07:23.672Z,99742.53
2022-12-19T04:09:51.563Z,99740.31
2022-12-19T04:12:21.353Z,99744.72
2022-12-19T04:14:49.491Z,99750.78
2022-12-19T04:17:34.600Z,99744.59
2022-12-19T04:20:12.074Z,99739.06
2022-12-19T04:22:51.202Z,99731.06
2022-12-19T04:25:29.222Z,99741.88
2022-12-19T04:28:02.491Z,99741.63
2022-12-19T04:30:29.399Z,99735.09
2022-12-19T04:32:56.710Z,99725.38
2022-12-19T04:35:23.211Z,99719.84
2022-12-19T04:37:49.673Z,99714.56
2022-12-19T04:40:16.229Z,99711.88
2022-12-19T04:42:42.650Z,99716.00
2022-12-19T04:45:09.416Z,99715.75
2022-12-19T04:47:36.018Z,99727.72
2022-12-19T04:50:02.389Z,99725.28
2022-12-19T04:52:28.812Z,99733.94
2022-12-19T04:54:55.236Z,99713.63
2022-12-19T04:57:21.863Z,99717.25
2022-12-19T04:59:48.247Z,99713.63
2022-12-19T05:02:14.843Z,99704.75
2022-12-19T05:04:41.296Z,99697.34
2022-12-19T05:07:07.731Z,99711.47
2022-12-19T05:09:34.148Z,99718.41
2022-12-19T05:12:00.593Z,99728.91
2022-12-19T05:14:27.753Z,99729.75
2022-12-19T05:17:00.443Z,99722.66
2022-12-19T05:19:28.288Z,99744.69
2022-12-19T05:21:54.701Z,99739.22
2022-12-19T05:24:21.124Z,99749.72
2022-12-19T05:26:49.105Z,99743.78
2022-12-19T05:29:16.183Z,99736.69
2022-12-19T05:31:43.245Z,99738.97
2022-12-19T05:34:09.848Z,99733.63
2022-12-19T05:36:36.298Z,99734.59
2022-12-19T05:39:02.824Z,99718.47
2022-12-19T05:41:29.304Z,99717.78
2022-12-19T05:43:56.491Z,99725.31
2022-12-19T05:46:24.004Z,99713.28
2022-12-19T05:48:51.315Z,99707.72
2022-12-19T05:51:17.779Z,99733.25
2022-12-19T05:53:44.706Z,99725.41
2022-12-19T05:56:21.561Z,99727.91
2022-12-19T05:58:48.729Z,99726.84
2022-12-19T06:01:24.542Z,99727.91
2022-12-19T06:03:52.029Z,99729.25
2022-12-19T06:06:24.430Z,99722.28
2022-12-19T06:08:55.652Z,99714.34
2022-12-19T06:11:22.836Z,99721.69
2022-12-19T06:13:49.543Z,99711.78
2022-12-19T06:16:19.073Z,99722.41
2022-12-19T06:18:46.219Z,99723.25
2022-12-19T06:21:31.049Z,99725.13
2022-12-19T06:23:57.492Z,99744.53
2022-12-19T06:26:24.122Z,99757.47
2022-12-19T06:28:52.045Z,99753.72
2022-12-19T06:31:20.904Z,99749.25
2022-12-19T06:33:47.553Z,99745.03
2022-12-19T06:36:23.379Z,99744.31
2022-12-19T06:38:50.901Z,99736.19
2022-12-19T06:41:37.033Z,99734.59
2022-12-19T06:44:06.064Z,99741.97
2022-12-19T06:46:33.059Z,99735.41
2022-12-19T06:48:59.638Z,99740.47
2022-12-19T06:51:26.309Z,99743.91
2022-12-19T06:53:52.747Z,99745.03
2022-12-19T06:56:20.167Z,99744.13
2022-12-19T06:58:47.843Z,99749.59
2022-12-19T07:01:29.057Z,99733.19
2022-12-19T07:03:55.670Z,99741.97
2022-12-19T07:06:22.846Z,99741.03
2022-12-19T07:08:49.299Z,99746.88
2022-12-19T07:11:15.747Z,99744.03
2022-12-19T07:13:42.113Z,99746.03
2022-12-19T07:16:09.172Z,99754.88
2022-12-19T07:18:39.692Z,99751.19
2022-12-19T07:21:07.549Z,99752.94
2022-12-19T07:23:35.161Z,99754.59
2022-12-19T07:26:01.678Z,99757.19
2022-12-19T07:28:28.337Z,99757.25
2022-12-19T07:30:54.752Z,99754.31
2022-12-19T07:33:21.970Z,99758.81
2022-12-19T07:35:48.691Z,99756.31
2022-12-19T07:38:15.230Z,99754.47
2022-12-19T07:40:41.759Z,99750.75
2022-12-19T07:43:08.210Z,99746.31
2022-12-19T07:45:37.833Z,99748.66
2022-12-19T07:48:06.176Z,99747.00
2022-12-19T07:50:32.980Z,99761.81
2022-12-19T07:53:00.145Z,99766.59
2022-12-19T07:55:27.039Z,99769.88
2022-12-19T07:57:55.142Z,99766.47
2022-12-19T08:00:22.157Z,99762.09
2022-12-19T08:02:48.639Z,99767.38
2022-12-19T08:05:15.833Z,99782.47
2022-12-19T08:07:42.212Z,99783.88
2022-12-19T08:10:11.283Z,99781.16
2022-12-19T08:12:38.129Z,99773.16
2022-12-19T08:15:05.768Z,99781.09
2022-12-19T08:17:32.245Z,99781.03
2022-12-19T08:19:58.685Z,99785.22
2022-12-19T08:22:25.104Z,99779.44
2022-12-19T08:24:51.581Z,99774.66
2022-12-19T08:27:18.668Z,99778.31
2022-12-19T08:29:45.122Z,99770.31
2022-12-19T08:32:15.620Z,99762.94
2022-12-19T08:34:45.190Z,99759.34
2022-12-19T08:37:11.558Z,99769.00
2022-12-19T08:39:37.915Z,99765.41
2022-12-19T08:42:04.464Z,99765.97
2022-12-19T08:44:30.934Z,99760.75
2022-12-19T08:46:57.324Z,99759.63
2022-12-19T08:49:23.732Z,99757.81
2022-12-19T08:51:50.162Z,99757.97
2022-12-19T08:54:16.637Z,99747.53
2022-12-19T08:56:46.361Z,99738.53
2022-12-19T08:59:21.444Z,99747.19
2022-12-19T09:01:58.323Z,99733.81
2022-12-19T09:05:57.792Z,99738.63
2022-12-19T09:07:11.247Z,99737.09
2022-12-19T09:09:41.771Z,99738.63
2022-12-19T09:12:08.180Z,99732.66
2022-12-19T09:14:35.651Z,99719.56
2022-12-19T09:17:02.617Z,99726.81
2022-12-19T09:19:31.331Z,99735.06
2022-12-19T09:21:57.773Z,99742.91
2022-12-19T09:24:24.229Z,99747.19
2022-12-19T09:26:50.630Z,99760.34
2022-12-19T09:29:20.410Z,99751.63
2022-12-19T09:31:50.024Z,99756.94
2022-12-19T09:34:22.667Z,99749.06
2022-12-19T09:36:50.558Z,99739.34
2022-12-19T09:39:18.117Z,99739.47
2022-12-19T09:42:03.454Z,99737.59
2022-12-19T09:44:49.121Z,99743.22
2022-12-19T09:47:23.953Z,99746.78
2022-12-19T09:49:52.236Z,99748.44
2022-12-19T09:52:25.800Z,99741.34
2022-12-19T09:54:58.373Z,99741.34
2022-12-19T09:57:43.676Z,99742.19
2022-12-19T10:00:13.710Z,99739.47
2022-12-19T10:02:58.556Z,99725.97
2022-12-19T10:05:57.708Z,99712.59
2022-12-19T10:08:27.824Z,99715.84
2022-12-19T10:12:43.487Z,99718.72
2022-12-19T10:14:12.455Z,99701.13
2022-12-19T10:17:22.108Z,99698.88
2022-12-19T10:19:52.631Z,99702.44
2022-12-19T10:22:37.912Z,99704.94
2022-12-19T10:25:36.192Z,99705.97
2022-12-19T10:28:11.863Z,99706.66
2022-12-19T10:30:45.134Z,99706.50
2022-12-19T10:33:39.820Z,99709.59
2022-12-19T10:36:10.476Z,99713.88
2022-12-19T10:38:51.109Z,99700.88
2022-12-19T10:41:24.767Z,99695.44
2022-12-19T10:44:05.747Z,99691.78
2022-12-19T10:46:40.180Z,99691.19
2022-12-19T10:49:24.737Z,99695.28
2022-12-19T10:52:10.341Z,99679.06
2022-12-19T10:54:37.911Z,99662.72
2022-12-19T10:57:22.500Z,99656.03
2022-12-19T10:59:59.327Z,99651.25
2022-12-19T11:02:37.782Z,99643.22
2022-12-19T11:05:20.735Z,99639.34
2022-12-19T11:08:07.073Z,99652.59
2022-12-19T11:11:55.184Z,99669.22
2022-12-19T11:19:22.438Z,99656.75
2022-12-19T11:21:40.786Z,99668.53
2022-12-19T11:29:27.342Z,99664.34
2022-12-19T11:29:32.004Z,99680.13
2022-12-19T11:30:06.373Z,99672.28
2022-12-19T11:30:41.128Z,99661.00
2022-12-19T11:34:05.972Z,99665.97
2022-12-19T11:37:04.892Z,99669.69
2022-12-19T11:39:45.355Z,99664.69
2022-12-19T11:42:25.541Z,99658.34
2022-12-19T11:45:10.681Z,99662.72
2022-12-19T11:47:45.563Z,99653.81
2022-12-19T11:50:22.154Z,99655.69
2022-12-19T11:53:22.581Z,99651.38
2022-12-19T11:56:15.775Z,99659.91
2022-12-19T11:58:49.491Z,99667.75
2022-12-19T12:01:51.188Z,99667.19
2022-12-19T12:04:54.821Z,99683.09
2022-12-19T12:08:22.129Z,99685.31
2022-12-19T12:13:18.233Z,99687.72
2022-12-19T12:24:18.205Z,99683.09
2022-12-19T12:29:15.779Z,99674.22
2022-12-19T12:31:13.060Z,99668.84
2022-12-19T12:31:14.693Z,99665.34
2022-12-19T12:31:52.581Z,99661.00
2022-12-19T12:32:01.907Z,99677.56
2022-12-19T12:35:29.214Z,99644.66
2022-12-19T12:39:01.951Z,99653.38
2022-12-19T12:41:53.057Z,99646.03
2022-12-19T12:44:30.692Z,99631.78
2022-12-19T12:47:06.619Z,99635.25
2022-12-19T12:50:36.302Z,99624.50
2022-12-19T12:53:07.292Z,99628.06
2022-12-19T12:55:40.095Z,99627.91
2022-12-19T12:58:44.869Z,99630.47
2022-12-19T13:01:29.707Z,99629.72
2022-12-19T13:03:58.902Z,99632.88
2022-12-19T13:06:37.722Z,99633.06
2022-12-19T13:09:42.914Z,99625.69
2022-12-19T13:12:45.376Z,99629.03
2022-12-19T13:15:34.284Z,99621.75
2022-12-19T13:18:09.203Z,99623.28
2022-12-19T13:20:47.443Z,99626.88
2022-12-19T13:23:33.990Z,99626.50
2022-12-19T13:26:00.530Z,99628.16
2022-12-19T13:28:36.029Z,99628.25
2022-12-19T13:31:18.885Z,99620.38
2022-12-19T13:33:57.065Z,99615.91
2022-12-19T13:39:51.026Z,99623.88
2022-12-19T13:40:10.832Z,99622.84
2022-12-19T13:43:11.464Z,99628.69
2022-12-19T13:45:40.658Z,99602.06
2022-12-19T13:48:15.187Z,99605.69
2022-12-19T13:50:42.808Z,99619.88
2022-12-19T13:53:17.757Z,99616.97
2022-12-19T13:55:44.738Z,99636.34
2022-12-19T13:58:28.987Z,99626.13
2022-12-19T14:01:01.115Z,99632.19
2022-12-19T14:03:39.053Z,99633.78
2022-12-19T14:06:17.831Z,99632.03
2022-12-19T14:08:47.639Z,99636.44
2022-12-19T14:13:41.549Z,99639.88
2022-12-19T14:15:13.055Z,99635.00
2022-12-19T14:17:42.999Z,99635.59
2022-12-19T14:22:02.139Z,99629.53
2022-12-19T14:23:14.577Z,99624.31
2022-12-19T14:28:19.656Z,99627.66
2022-12-19T14:28:55.106Z,99619.88
2022-12-19T14:31:23.383Z,99617.13
2022-12-19T14:34:19.051Z,99608.06
2022-12-19T14:36:40.786Z,99617.03
2022-12-19T14:39:23.727Z,99611.59
2022-12-19T14:42:31.558Z,99606.91
2022-12-19T14:52:25.092Z,99609.94
2022-12-19T14:54:10.031Z,99622.00
2022-12-19T14:54:31.031Z,99618.50
2022-12-19T14:57:25.626Z,99606.03
2022-12-19T15:01:07.745Z,99593.34
2022-12-19T15:03:18.302Z,99594.53
2022-12-19T15:05:45.138Z,99592.97
2022-12-19T15:08:12.091Z,99601.69
2022-12-19T15:11:00.907Z,99599.91
2022-12-19T15:14:47.629Z,99584.38
2022-12-19T15:16:30.252Z,99601.66
2022-12-19T15:18:59.093Z,99599.19
2022-12-19T15:21:26.499Z,99587.63
2022-12-19T15:23:52.982Z,99577.59
2022-12-19T15:26:28.406Z,99562.34
2022-12-19T15:28:57.150Z,99551.00
2022-12-19T15:31:32.891Z,99535.22
2022-12-19T15:34:33.096Z,99536.53
2022-12-19T15:36:45.885Z,99535.97
2022-12-19T15:39:12.287Z,99541.25
2022-12-19T15:41:38.702Z,99536.72
2022-12-19T15:44:10.064Z,99529.50
2022-12-19T15:46:38.845Z,99533.75
2022-12-19T15:49:27.542Z,99537.03
2022-12-19T15:51:53.977Z,99540.63
2022-12-19T15:57:30.006Z,99551.31
2022-12-19T16:00:00.220Z,99544.81
2022-12-19T16:02:42.728Z,99544.25
2022-12-19T16:05:14.984Z,99547.25
2022-12-19T16:07:41.650Z,99536.31
2022-12-19T16:10:10.928Z,99533.75
2022-12-19T16:12:43.344Z,99531.50
2022-12-19T16:15:26.072Z,99535.06
2022-12-19T16:17:53.186Z,99538.41
2022-12-19T16:20:39.819Z,99553.56
2022-12-19T16:23:07.927Z,99570.88
2022-12-19T16:25:43.271Z,99559.53
2022-12-19T16:28:26.424Z,99554.22
2022-12-19T16:30:53.176Z,99559.03
2022-12-19T16:33:26.140Z,99536.50
2022-12-19T16:36:04.011Z,99537.38
2022-12-19T16:38:31.431Z,99537.28
2022-12-19T16:40:57.830Z,99532.47
2022-12-19T16:43:35.608Z,99533.31
2022-12-19T16:46:05.586Z,99527.59
2022-12-19T16:48:33.986Z,99517.00
2022-12-19T16:51:00.491Z,99510.53
2022-12-19T16:53:27.312Z,99515.50
2022-12-19T16:55:55.576Z,99511.34
2022-12-19T16:58:27.376Z,99498.81
2022-12-19T17:00:55.311Z,99508.47
2022-12-19T17:03:37.331Z,99502.53
2022-12-19T17:06:04.357Z,99512.47
2022-12-19T17:08:32.312Z,99512.66
2022-12-19T17:10:58.801Z,99520.81
2022-12-19T17:13:25.532Z,99523.28
2022-12-19T17:15:56.774Z,99513.66
2022-12-19T17:18:38.271Z,99522.41
2022-12-19T17:21:04.743Z,99535.19
2022-12-19T17:23:32.522Z,99533.84
2022-12-19T17:26:00.306Z,99546.75
2022-12-19T17:28:28.170Z,99545.91
2022-12-19T17:30:59.888Z,99552.06
2022-12-19T17:33:33.280Z,99545.25
2022-12-19T17:36:01.528Z,99540.97
2022-12-19T17:38:28.128Z,99552.84
2022-12-19T17:40:54.676Z,99554.53
2022-12-19T17:43:21.061Z,99553.19
2022-12-19T17:45:47.838Z,99553.47
2022-12-19T17:48:34.519Z,99552.34
2022-12-19T17:51:01.000Z,99552.59
2022-12-19T17:53:27.511Z,99548.16
2022-12-19T17:55:53.913Z,99553.16
2022-12-19T17:58:21.578Z,99547.03
2022-12-19T18:00:49.719Z,99564.50
2022-12-19T18:03:24.831Z,99572.47
2022-12-19T18:05:54.152Z,99577.09
2022-12-19T18:08:30.558Z,99585.25
2022-12-19T18:10:59.733Z,99587.44
2022-12-19T18:13:27.865Z,99579.41
2022-12-19T18:16:00.046Z,99566.66
2022-12-19T18:18:45.745Z,99556.66
2022-12-19T18:21:19.302Z,99549.13
2022-12-19T18:23:46.324Z,99555.63
2022-12-19T18:26:12.920Z,99557.34
2022-12-19T18:28:40.325Z,99545.25
2022-12-19T18:31:14.807Z,99528.66
2022-12-19T18:33:43.436Z,99528.22
2022-12-19T18:36:17.737Z,99523.44
2022-12-19T18:38:44.425Z,99527.59
2022-12-19T18:41:12.284Z,99522.69
2022-12-19T18:43:38.732Z,99504.38
2022-12-19T18:46:05.741Z,99513.13
2022-12-19T18:48:36.800Z,99531.44
2022-12-19T18:51:04.750Z,99521.56
2022-12-19T18:53:35.269Z,99532.06
2022-12-19T18:56:04.183Z,99524.94
2022-12-19T18:58:30.981Z,99517.59
2022-12-19T19:00:59.872Z,99516.84
2022-12-19T19:03:29.737Z,99524.50
2022-12-19T19:05:56.690Z,99526.31
2022-12-19T19:08:26.430Z,99508.31
2022-12-19T19:10:54.694Z,99505.94
2022-12-19T19:13:22.869Z,99513.19
2022-12-19T19:16:05.424Z,99511.28
2022-12-19T19:18:36.477Z,99523.53
2022-12-19T19:21:03.799Z,99521.94
2022-12-19T19:23:37.908Z,99526.72
2022-12-19T19:26:05.038Z,99520.66
2022-12-19T19:28:31.477Z,99513.72
2022-12-19T19:31:00.064Z,99510.75
2022-12-19T19:33:40.813Z,99511.16
2022-12-19T19:36:13.360Z,99517.22
2022-12-19T19:38:46.185Z,99534.88
2022-12-19T19:41:12.772Z,99532.13
2022-12-19T19:43:39.519Z,99536.91
2022-12-19T19:46:06.056Z,99536.47
2022-12-19T19:48:33.180Z,99540.72
2022-12-19T19:50:59.656Z,99555.00
2022-12-19T19:53:26.176Z,99550.00
2022-12-19T19:56:01.312Z,99550.53
2022-12-19T19:58:28.379Z,99554.03
2022-12-19T20:00:54.935Z,99560.88
2022-12-19T20:03:23.327Z,99549.47
2022-12-19T20:05:50.411Z,99549.84
2022-12-19T20:08:17.252Z,99553.28
2022-12-19T20:10:43.713Z,99559.34
2022-12-19T20:13:10.998Z,99563.84
2022-12-19T20:15:37.498Z,99564.78
2022-12-19T20:18:03.991Z,99561.03
2022-12-19T20:20:32.607Z,99560.34
2022-12-19T20:22:59.113Z,99554.75
2022-12-19T20:25:25.457Z,99564.91
2022-12-19T20:27:51.838Z,99571.19
2022-12-19T20:30:18.569Z,99565.53
2022-12-19T20:32:45.109Z,99556.63
2022-12-19T20:35:14.783Z,99553.19
2022-12-19T20:37:41.987Z,99563.84
2022-12-19T20:40:09.283Z,99561.72
2022-12-19T20:42:35.834Z,99556.78
2022-12-19T20:45:02.349Z,99564.00
2022-12-19T20:47:28.845Z,99557.44
2022-12-19T20:49:55.356Z,99556.00
2022-12-19T20:52:22.049Z,99559.88
2022-12-19T20:54:48.526Z,99562.75
2022-12-19T20:57:14.964Z,99570.09
2022-12-19T20:59:41.342Z,99578.88
2022-12-19T21:02:07.905Z,99582.75
2022-12-19T21:04:34.791Z,99579.97
2022-12-19T21:07:01.438Z,99583.25
2022-12-19T21:09:28.017Z,99573.75
2022-12-19T21:11:54.594Z,99575.25
2022-12-19T21:14:21.121Z,99581.03
2022-12-19T21:16:52.188Z,99575.25
2022-12-19T21:19:19.214Z,99564.59
2022-12-19T21:21:45.735Z,99569.69
2022-12-19T21:24:12.878Z,99573.44
2022-12-19T21:26:39.457Z,99563.50
2022-12-19T21:29:06.048Z,99549.09
2022-12-19T21:31:32.631Z,99550.19
2022-12-19T21:34:01.552Z,99553.88
2022-12-19T21:36:30.103Z,99541.09
2022-12-19T21:38:58.372Z,99545.25
2022-12-19T21:41:24.864Z,99547.41
2022-12-19T21:43:53.876Z,99560.56
2022-12-19T21:46:23.571Z,99556.44
2022-12-19T21:48:52.205Z,99557.38
2022-12-19T21:51:21.675Z,99551.47
2022-12-19T21:53:48.498Z,99549.03
2022-12-19T21:56:30.297Z,99556.72
2022-12-19T21:58:59.455Z,99553.28
2022-12-19T22:01:26.911Z,99548.19
2022-12-19T22:04:01.141Z,99557.44
2022-12-19T22:06:31.668Z,99556.94
2022-12-19T22:08:59.491Z,99558.50
2022-12-19T22:11:27.448Z,99554.75
2022-12-19T22:13:54.354Z,99552.94
2022-12-19T22:16:20.854Z,99547.97
2022-12-19T22:18:47.528Z,99550.53
2022-12-19T22:21:15.113Z,99553.47
2022-12-19T22:23:42.326Z,99542.78
2022-12-19T22:26:18.198Z,99550.94
2022-12-19T22:28:47.525Z,99541.09
2022-12-19T22:31:20.130Z,99536.09
2022-12-19T22:33:48.572Z,99532.84
2022-12-19T22:36:17.514Z,99535.78
2022-12-19T22:38:48.758Z,99535.16
2022-12-19T22:41:17.115Z,99540.50
2022-12-19T22:43:43.900Z,99532.13
2022-12-19T22:46:14.825Z,99536.72
2022-12-19T22:48:42.399Z,99536.72
2022-12-19T22:51:09.818Z,99529.69
2022-12-19T22:53:37.742Z,99532.03
2022-12-19T22:56:07.905Z,99525.47
2022-12-19T22:58:35.585Z,99521.44
2022-12-19T23:01:12.033Z,99530.06
2022-12-19T23:03:38.560Z,99524.13
2022-12-19T23:06:05.090Z,99518.41
2022-12-19T23:08:31.618Z,99518.19
2022-12-19T23:10:58.372Z,99510.78
2022-12-19T23:13:25.222Z,99523.88
2022-12-19T23:15:52.074Z,99524.22
2022-12-19T23:18:18.648Z,99522.78
2022-12-19T23:20:45.145Z,99519.13
2022-12-19T23:23:11.571Z,99521.94
2022-12-19T23:25:41.937Z,99527.66
2022-12-19T23:28:09.550Z,99516.81
2022-12-19T23:30:36.871Z,99520.44
2022-12-19T23:33:04.160Z,99511.25
2022-12-19T23:35:33.062Z,99509.66
2022-12-19T23:37:59.489Z,99499.72
2022-12-19T23:40:25.904Z,99499.59
2022-12-19T23:42:52.506Z,99497.03
2022-12-19T23:45:18.957Z,99491.72
2022-12-19T23:47:46.651Z,99498.38
2022-12-19T23:50:13.027Z,99497.53
2022-12-19T23:52:39.510Z,99494.34
2022-12-19T23:55:06.531Z,99499.09
2022-12-19T23:57:32.932Z,99479.66
2022-12-19T23:59:59.549Z,99478.34
